createdAt,value
2018-06-29T00:00:08.881Z,6.43
2018-06-29T00:02:37.221Z,4.63
2018-06-29T00:05:06.286Z,3.70
2018-06-29T00:07:34.419Z,7.23
2018-06-29T00:10:02.774Z,3.30
2018-06-29T00:12:31.101Z,4.60
2018-06-29T00:14:59.182Z,3.00
2018-06-29T00:17:28.087Z,3.33
2018-06-29T00:19:56.447Z,3.20
2018-06-29T00:22:25.598Z,3.83
2018-06-29T00:24:53.958Z,8.43
2018-06-29T00:27:22.282Z,3.43
2018-06-29T00:29:50.674Z,4.17
2018-06-29T00:32:19.109Z,4.07
2018-06-29T00:34:48.465Z,5.07
2018-06-29T00:37:17.285Z,4.73
2018-06-29T00:39:45.614Z,5.67
2018-06-29T00:42:14.070Z,3.67
2018-06-29T00:44:42.471Z,5.60
2018-06-29T00:47:11.355Z,6.13
2018-06-29T00:49:39.709Z,5.70
2018-06-29T00:52:08.110Z,4.57
2018-06-29T00:54:36.483Z,6.60
2018-06-29T00:57:04.929Z,5.40
2018-06-29T00:59:33.342Z,6.60
2018-06-29T01:02:01.698Z,5.57
2018-06-29T01:04:30.045Z,5.53
2018-06-29T01:06:58.454Z,5.63
2018-06-29T01:09:27.438Z,5.30
2018-06-29T01:11:55.824Z,5.30
2018-06-29T01:14:24.169Z,5.87
2018-06-29T01:16:52.510Z,5.97
2018-06-29T01:19:20.885Z,5.60
2018-06-29T01:21:49.322Z,5.63
2018-06-29T01:24:17.687Z,6.37
2018-06-29T01:26:46.006Z,6.40
2018-06-29T01:29:14.333Z,5.53
2018-06-29T01:31:42.682Z,5.80
2018-06-29T01:34:11.638Z,7.27
2018-06-29T01:36:39.945Z,7.17
2018-06-29T01:39:09.421Z,5.27
2018-06-29T01:41:37.737Z,5.37
2018-06-29T01:44:06.065Z,4.77
2018-06-29T01:46:34.466Z,6.33
2018-06-29T01:49:02.836Z,6.07
2018-06-29T01:51:31.198Z,5.07
2018-06-29T01:53:59.306Z,6.45
2018-06-29T01:56:27.594Z,7.47
2018-06-29T01:58:55.990Z,5.03
2018-06-29T02:01:24.321Z,6.80
2018-06-29T02:03:52.686Z,7.62
2018-06-29T02:06:21.091Z,7.80
2018-06-29T02:08:49.462Z,6.07
2018-06-29T02:11:18.877Z,6.57
2018-06-29T02:13:47.233Z,6.57
2018-06-29T02:16:15.466Z,7.63
2018-06-29T02:18:43.985Z,6.47
2018-06-29T02:21:12.109Z,6.83
2018-06-29T02:23:40.465Z,6.73
2018-06-29T02:26:08.795Z,8.77
2018-06-29T02:28:37.178Z,11.00
2018-06-29T02:31:05.605Z,8.60
2018-06-29T02:33:33.946Z,9.23
2018-06-29T02:36:02.025Z,7.97
2018-06-29T02:38:30.085Z,9.23
2018-06-29T02:40:58.145Z,10.17
2018-06-29T02:43:26.542Z,9.73
2018-06-29T02:45:54.619Z,8.80
2018-06-29T02:48:22.942Z,9.37
2018-06-29T02:50:51.325Z,8.67
2018-06-29T02:53:19.859Z,9.73
2018-06-29T02:55:48.262Z,8.50
2018-06-29T02:58:16.609Z,11.53
2018-06-29T03:00:44.973Z,12.80
2018-06-29T03:03:13.277Z,15.27
2018-06-29T03:05:41.769Z,13.83
2018-06-29T03:08:10.137Z,15.83
2018-06-29T03:10:39.018Z,17.00
2018-06-29T03:13:07.735Z,19.77
2018-06-29T03:15:36.181Z,15.03
2018-06-29T03:18:04.564Z,14.53
2018-06-29T03:20:32.653Z,14.97
2018-06-29T03:23:01.012Z,14.67
2018-06-29T03:25:29.382Z,13.20
2018-06-29T03:27:57.773Z,15.93
2018-06-29T03:30:26.154Z,18.37
2018-06-29T03:32:54.503Z,16.20
2018-06-29T03:35:22.842Z,18.13
2018-06-29T03:37:51.182Z,18.97
2018-06-29T03:40:19.541Z,20.60
2018-06-29T03:42:47.937Z,22.13
2018-06-29T03:45:16.304Z,21.60
2018-06-29T03:47:44.605Z,20.43
2018-06-29T03:50:13.041Z,21.37
2018-06-29T03:52:41.382Z,21.27
2018-06-29T03:55:09.786Z,23.77
2018-06-29T03:57:38.137Z,24.30
2018-06-29T04:00:06.591Z,23.07
2018-06-29T04:02:35.846Z,22.57
2018-06-29T04:05:04.201Z,23.53
2018-06-29T04:07:32.562Z,21.43
2018-06-29T04:10:01.026Z,22.63
2018-06-29T04:12:29.359Z,24.17
2018-06-29T04:14:58.381Z,25.83
2018-06-29T04:17:26.765Z,25.37
2018-06-29T04:19:55.128Z,23.37
2018-06-29T04:22:23.441Z,26.50
2018-06-29T04:24:55.638Z,25.73
2018-06-29T04:27:25.183Z,25.40
2018-06-29T04:29:53.549Z,27.83
2018-06-29T04:32:22.778Z,24.90
2018-06-29T04:34:51.141Z,28.17
2018-06-29T04:37:19.450Z,27.77
2018-06-29T04:39:47.810Z,26.63
2018-06-29T04:42:16.234Z,25.67
2018-06-29T04:44:44.581Z,30.60
2018-06-29T04:47:12.905Z,28.40
2018-06-29T04:49:41.319Z,28.37
2018-06-29T04:52:09.642Z,29.13
2018-06-29T04:54:39.165Z,29.20
2018-06-29T04:57:07.577Z,24.97
2018-06-29T04:59:35.953Z,30.77
2018-06-29T05:02:04.305Z,29.07
2018-06-29T05:04:33.509Z,29.70
2018-06-29T05:07:01.837Z,29.33
2018-06-29T05:09:30.161Z,26.87
2018-06-29T05:11:58.481Z,27.67
2018-06-29T05:14:26.846Z,28.87
2018-06-29T05:16:55.425Z,25.53
2018-06-29T05:19:23.803Z,25.47
2018-06-29T05:21:52.161Z,25.63
2018-06-29T05:24:20.585Z,28.40
2018-06-29T05:26:49.009Z,23.10
2018-06-29T05:29:18.357Z,23.23
2018-06-29T05:31:46.689Z,20.90
2018-06-29T05:34:15.610Z,28.73
2018-06-29T05:36:43.890Z,28.97
2018-06-29T05:39:12.178Z,23.33
2018-06-29T05:41:40.546Z,23.70
2018-06-29T05:44:08.829Z,23.57
2018-06-29T05:46:38.051Z,25.83
2018-06-29T05:49:07.054Z,23.13
2018-06-29T05:51:35.358Z,21.30
2018-06-29T05:54:03.714Z,22.10
2018-06-29T05:56:32.084Z,22.37
2018-06-29T05:59:03.221Z,21.83
2018-06-29T06:01:33.240Z,19.43
2018-06-29T06:04:01.538Z,18.87
2018-06-29T06:06:29.636Z,22.10
2018-06-29T06:08:57.949Z,20.77
2018-06-29T06:11:27.270Z,17.77
2018-06-29T06:13:55.641Z,19.90
2018-06-29T06:16:23.993Z,19.33
2018-06-29T06:21:06.161Z,17.20
2018-06-29T06:23:34.529Z,18.50
2018-06-29T06:26:02.847Z,20.97
2018-06-29T06:28:31.195Z,17.27
2018-06-29T06:30:59.522Z,18.73
2018-06-29T06:33:27.845Z,16.87
2018-06-29T06:35:57.162Z,17.87
2018-06-29T06:38:26.820Z,18.63
2018-06-29T06:40:55.222Z,14.37
2018-06-29T06:43:23.570Z,15.43
2018-06-29T06:45:52.557Z,18.00
2018-06-29T06:48:21.881Z,13.70
2018-06-29T06:50:50.233Z,14.17
2018-06-29T06:53:18.619Z,16.17
2018-06-29T06:55:46.933Z,15.57
2018-06-29T06:58:15.338Z,14.33
2018-06-29T07:00:43.719Z,16.70
2018-06-29T07:03:12.037Z,12.13
2018-06-29T07:05:40.432Z,11.67
2018-06-29T07:08:08.781Z,12.57
2018-06-29T07:10:37.119Z,17.23
2018-06-29T07:13:05.459Z,13.87
2018-06-29T07:15:33.805Z,12.47
2018-06-29T07:18:02.109Z,13.20
2018-06-29T07:20:30.910Z,9.83
2018-06-29T07:22:59.248Z,11.43
2018-06-29T07:25:27.333Z,10.77
2018-06-29T07:27:56.165Z,10.30
2018-06-29T07:30:24.898Z,9.27
2018-06-29T07:32:53.227Z,7.83
2018-06-29T07:35:21.530Z,7.20
2018-06-29T07:37:51.128Z,11.13
2018-06-29T07:40:19.441Z,12.20
2018-06-29T07:42:47.743Z,11.13
2018-06-29T07:45:16.092Z,8.57
2018-06-29T07:47:44.401Z,9.40
2018-06-29T07:50:12.705Z,8.47
2018-06-29T07:52:41.634Z,9.03
2018-06-29T07:55:09.729Z,9.27
2018-06-29T07:57:38.000Z,10.47
2018-06-29T08:00:06.529Z,9.98
2018-06-29T08:02:34.852Z,7.03
2018-06-29T08:05:03.154Z,10.03
2018-06-29T08:07:31.506Z,7.37
2018-06-29T08:09:59.810Z,7.33
2018-06-29T08:12:28.119Z,8.10
2018-06-29T08:14:56.618Z,6.47
2018-06-29T08:17:25.465Z,5.37
2018-06-29T08:19:53.798Z,7.73
2018-06-29T08:22:22.261Z,7.93
2018-06-29T08:25:01.794Z,5.90
2018-06-29T08:27:30.217Z,4.60
2018-06-29T08:29:59.157Z,6.77
2018-06-29T08:32:27.430Z,6.70
2018-06-29T08:34:55.745Z,5.67
2018-06-29T08:37:24.021Z,5.67
2018-06-29T08:39:52.325Z,6.87
2018-06-29T08:42:20.651Z,6.43
2018-06-29T08:44:48.950Z,3.60
2018-06-29T08:47:17.283Z,3.77
2018-06-29T08:49:45.666Z,3.73
2018-06-29T08:52:13.976Z,5.00
2018-06-29T08:54:42.901Z,3.60
2018-06-29T08:57:11.954Z,3.70
2018-06-29T08:59:40.381Z,4.40
2018-06-29T09:02:08.733Z,4.27
2018-06-29T09:04:37.078Z,4.20
2018-06-29T09:07:06.260Z,4.43
2018-06-29T09:09:35.472Z,4.03
2018-06-29T09:12:03.765Z,7.00
2018-06-29T09:14:32.130Z,3.67
2018-06-29T09:17:00.686Z,4.40
2018-06-29T09:19:28.985Z,3.97
2018-06-29T09:21:57.297Z,3.60
2018-06-29T09:24:25.715Z,3.40
2018-06-29T09:26:54.068Z,5.90
2018-06-29T09:29:22.393Z,4.73
2018-06-29T09:31:50.666Z,7.97
2018-06-29T09:34:18.975Z,5.43
2018-06-29T09:36:47.286Z,4.80
2018-06-29T09:39:15.609Z,2.90
2018-06-29T09:41:44.369Z,4.00
2018-06-29T09:44:12.673Z,5.00
2018-06-29T09:46:41.665Z,4.97
2018-06-29T09:49:10.006Z,5.00
2018-06-29T09:51:39.153Z,4.63
2018-06-29T09:54:07.617Z,4.27
2018-06-29T09:56:36.011Z,3.73
2018-06-29T09:59:04.526Z,4.43
2018-06-29T10:01:32.981Z,4.97
2018-06-29T10:04:01.377Z,3.03
2018-06-29T10:06:29.722Z,3.53
2018-06-29T10:08:58.301Z,2.30
2018-06-29T10:11:26.782Z,2.30
2018-06-29T10:13:56.228Z,3.53
2018-06-29T10:16:24.579Z,3.57
2018-06-29T10:18:53.577Z,3.00
2018-06-29T10:21:21.966Z,3.23
2018-06-29T10:23:50.522Z,4.37
2018-06-29T10:26:19.005Z,3.80
2018-06-29T10:28:47.418Z,3.60
2018-06-29T10:31:15.793Z,4.33
2018-06-29T10:33:44.183Z,2.80
2018-06-29T10:36:12.722Z,4.30
2018-06-29T10:38:40.785Z,2.77
2018-06-29T10:41:09.277Z,4.93
2018-06-29T10:43:37.594Z,1.97
2018-06-29T10:46:05.993Z,2.00
2018-06-29T10:48:35.566Z,1.77
2018-06-29T10:51:03.647Z,2.50
2018-06-29T10:53:32.685Z,3.27
2018-06-29T10:56:01.916Z,2.50
2018-06-29T10:58:30.324Z,3.67
2018-06-29T11:00:58.653Z,2.73
2018-06-29T11:03:27.046Z,2.50
2018-06-29T11:05:55.461Z,1.50
2018-06-29T11:08:24.521Z,1.60
2018-06-29T11:10:52.875Z,1.60
2018-06-29T11:13:22.172Z,3.70
2018-06-29T11:15:51.629Z,1.90
2018-06-29T11:18:20.105Z,1.63
2018-06-29T11:20:48.486Z,3.77
2018-06-29T11:23:16.810Z,2.97
2018-06-29T11:25:45.714Z,2.37
2018-06-29T11:28:14.133Z,1.97
2018-06-29T11:30:42.200Z,1.77
2018-06-29T11:33:10.505Z,3.63
2018-06-29T11:35:38.790Z,4.33
2018-06-29T11:38:07.101Z,2.27
2018-06-29T11:40:35.421Z,3.20
2018-06-29T11:43:03.734Z,3.47
2018-06-29T11:45:32.684Z,2.70
2018-06-29T11:48:00.973Z,1.20
2018-06-29T11:50:29.313Z,1.83
2018-06-29T11:52:57.610Z,1.53
2018-06-29T11:55:25.935Z,3.37
2018-06-29T11:57:54.269Z,2.17
2018-06-29T12:00:22.649Z,3.50
2018-06-29T12:02:50.994Z,2.90
2018-06-29T12:05:19.049Z,2.20
2018-06-29T12:07:47.080Z,1.67
2018-06-29T12:10:15.435Z,3.63
2018-06-29T12:12:43.742Z,3.53
2018-06-29T12:15:12.014Z,2.20
2018-06-29T12:17:41.217Z,2.50
2018-06-29T12:20:09.633Z,7.87
2018-06-29T12:22:37.666Z,4.17
2018-06-29T12:25:05.984Z,6.67
2018-06-29T12:27:35.157Z,6.77
2018-06-29T12:30:03.626Z,4.87
2018-06-29T12:32:31.966Z,6.53
2018-06-29T12:35:00.251Z,5.80
2018-06-29T12:37:28.557Z,3.70
2018-06-29T12:39:56.906Z,2.90
2018-06-29T12:42:25.225Z,2.80
2018-06-29T12:44:53.547Z,4.23
2018-06-29T12:47:21.845Z,2.00
2018-06-29T12:49:50.141Z,2.00
2018-06-29T12:52:18.782Z,1.87
2018-06-29T12:54:47.350Z,3.60
2018-06-29T12:57:15.682Z,2.97
2018-06-29T12:59:44.007Z,2.43
2018-06-29T13:02:12.273Z,2.33
2018-06-29T13:04:41.466Z,3.10
2018-06-29T13:07:09.804Z,2.53
2018-06-29T13:09:40.354Z,2.87
2018-06-29T13:12:08.642Z,3.00
2018-06-29T13:14:36.937Z,2.53
2018-06-29T13:17:05.021Z,3.53
2018-06-29T13:19:33.330Z,3.63
2018-06-29T13:22:01.770Z,3.60
2018-06-29T13:24:30.377Z,7.40
2018-06-29T13:26:59.201Z,6.83
2018-06-29T13:29:27.489Z,1.70
2018-06-29T13:31:55.891Z,2.10
2018-06-29T13:34:24.249Z,3.97
2018-06-29T13:36:52.598Z,3.33
2018-06-29T13:39:20.950Z,2.60
2018-06-29T13:41:49.248Z,5.27
2018-06-29T13:44:17.550Z,4.70
2018-06-29T13:46:45.875Z,2.80
2018-06-29T13:49:15.265Z,3.53
2018-06-29T13:51:43.643Z,1.83
2018-06-29T13:54:11.949Z,3.33
2018-06-29T13:56:40.877Z,3.07
2018-06-29T13:59:09.282Z,3.93
2018-06-29T14:01:37.594Z,4.13
2018-06-29T14:04:05.608Z,5.60
2018-06-29T14:06:33.935Z,4.87
2018-06-29T14:09:01.965Z,7.77
2018-06-29T14:11:30.264Z,3.73
2018-06-29T14:13:58.577Z,3.80
2018-06-29T14:16:26.876Z,3.17
2018-06-29T14:18:56.132Z,2.90
2018-06-29T14:21:24.172Z,2.50
2018-06-29T14:23:52.570Z,3.87
2018-06-29T14:26:21.393Z,4.07
2018-06-29T14:28:49.714Z,6.03
2018-06-29T14:31:18.017Z,4.03
2018-06-29T14:33:46.407Z,3.97
2018-06-29T14:36:14.725Z,3.30
2018-06-29T14:38:43.037Z,5.93
2018-06-29T14:41:11.357Z,8.23
2018-06-29T14:43:39.630Z,6.50
2018-06-29T14:46:08.592Z,4.47
2018-06-29T14:48:36.897Z,5.03
2018-06-29T14:51:05.225Z,6.17
2018-06-29T14:53:33.611Z,6.63
2018-06-29T14:56:01.893Z,5.93
2018-06-29T14:58:30.180Z,4.57
2018-06-29T15:00:58.501Z,4.97
2018-06-29T15:03:26.797Z,5.20
2018-06-29T15:05:55.367Z,6.13
2018-06-29T15:08:23.875Z,4.73
2018-06-29T15:10:52.149Z,4.93
2018-06-29T15:13:21.458Z,8.13
2018-06-29T15:15:49.893Z,7.10
2018-06-29T15:18:18.145Z,6.67
2018-06-29T15:20:46.444Z,7.70
2018-06-29T15:23:14.773Z,7.87
2018-06-29T15:25:43.147Z,8.47
2018-06-29T15:28:11.435Z,10.10
2018-06-29T15:30:40.199Z,18.32
2018-06-29T15:33:08.505Z,322.93
2018-06-29T15:35:37.793Z,514.27
2018-06-29T15:38:06.210Z,319.73
2018-06-29T15:40:35.491Z,565.87
2018-06-29T15:43:08.573Z,861.37
2018-06-29T15:45:37.152Z,109.83
2018-06-29T15:48:05.711Z,155.73
2018-06-29T15:50:37.877Z,44.90
2018-06-29T15:53:07.987Z,13.13
2018-06-29T15:55:41.707Z,13.57
2018-06-29T15:58:10.018Z,16.07
2018-06-29T16:00:50.205Z,45.73
2018-06-29T16:03:18.509Z,39.97
2018-06-29T16:05:47.338Z,52.77
2018-06-29T16:08:15.690Z,41.40
2018-06-29T16:10:43.998Z,56.13
2018-06-29T16:13:12.358Z,43.00
2018-06-29T16:15:40.665Z,24.17
2018-06-29T16:18:08.949Z,22.20
2018-06-29T16:20:37.249Z,52.43
2018-06-29T16:23:05.945Z,51.57
2018-06-29T16:25:34.249Z,56.33
2018-06-29T16:28:02.546Z,14.23
2018-06-29T16:30:30.873Z,16.57
2018-06-29T16:32:59.209Z,12.93
2018-06-29T16:35:27.529Z,40.67
2018-06-29T16:37:56.046Z,16.43
2018-06-29T16:40:24.381Z,10.33
2018-06-29T16:42:52.869Z,21.10
2018-06-29T16:45:21.201Z,103.90
2018-06-29T16:47:49.778Z,12.93
2018-06-29T16:50:18.129Z,24.90
2018-06-29T16:52:47.037Z,15.93
2018-06-29T16:55:15.357Z,24.53
2018-06-29T16:57:44.599Z,22.70
2018-06-29T17:00:12.998Z,8.17
2018-06-29T17:02:41.341Z,13.10
2018-06-29T17:05:09.706Z,13.07
2018-06-29T17:07:38.094Z,12.07
2018-06-29T17:10:06.425Z,36.43
2018-06-29T17:12:36.757Z,8.47
2018-06-29T17:15:06.189Z,9.83
2018-06-29T17:17:34.489Z,4.47
2018-06-29T17:20:02.777Z,5.97
2018-06-29T17:22:31.764Z,8.47
2018-06-29T17:25:00.459Z,7.40
2018-06-29T17:27:28.789Z,9.77
2018-06-29T17:29:57.269Z,10.93
2018-06-29T17:32:26.039Z,8.33
2018-06-29T17:34:54.565Z,6.37
2018-06-29T17:37:22.893Z,9.57
2018-06-29T17:39:51.265Z,7.97
2018-06-29T17:42:20.478Z,17.20
2018-06-29T17:44:48.794Z,8.27
2018-06-29T17:47:16.889Z,7.30
2018-06-29T17:49:46.178Z,7.63
2018-06-29T17:52:16.294Z,8.40
2018-06-29T17:54:45.024Z,11.50
2018-06-29T17:57:14.793Z,8.53
2018-06-29T17:59:43.375Z,4.70
2018-06-29T18:02:11.566Z,7.17
2018-06-29T18:04:39.908Z,5.27
2018-06-29T18:07:08.307Z,8.43
2018-06-29T18:09:36.586Z,4.67
2018-06-29T18:12:04.726Z,5.43
2018-06-29T18:14:33.065Z,5.13
2018-06-29T18:17:06.498Z,13.07
2018-06-29T18:19:34.827Z,7.37
2018-06-29T18:22:03.137Z,6.23
2018-06-29T18:24:31.606Z,8.10
2018-06-29T18:26:59.975Z,7.70
2018-06-29T18:29:31.199Z,11.13
2018-06-29T18:32:00.643Z,10.50
2018-06-29T18:34:28.957Z,12.63
2018-06-29T18:36:59.748Z,11.90
2018-06-29T18:39:38.253Z,11.70
2018-06-29T18:42:06.731Z,10.27
2018-06-29T18:44:39.525Z,8.03
2018-06-29T18:47:07.897Z,10.97
2018-06-29T18:49:36.182Z,13.60
2018-06-29T18:52:04.666Z,11.13
2018-06-29T18:54:33.206Z,10.50
2018-06-29T18:57:01.314Z,14.07
2018-06-29T18:59:29.718Z,14.50
2018-06-29T19:01:58.889Z,11.13
2018-06-29T19:04:31.043Z,12.97
2018-06-29T19:07:02.281Z,10.57
2018-06-29T19:09:30.619Z,9.80
2018-06-29T19:11:59.033Z,9.43
2018-06-29T19:14:27.345Z,13.27
2018-06-29T19:16:55.625Z,10.73
2018-06-29T19:19:23.950Z,8.73
2018-06-29T19:21:52.311Z,13.37
2018-06-29T19:24:20.794Z,11.17
2018-06-29T19:26:49.687Z,12.70
2018-06-29T19:29:18.766Z,13.23
2018-06-29T19:31:47.205Z,8.77
2018-06-29T19:34:15.262Z,12.63
2018-06-29T19:36:43.339Z,10.97
2018-06-29T19:39:12.744Z,12.30
2018-06-29T19:41:42.489Z,12.93
2018-06-29T19:44:13.116Z,11.38
2018-06-29T19:46:42.170Z,10.80
2018-06-29T19:49:12.546Z,10.30
2018-06-29T19:51:41.977Z,13.03
2018-06-29T19:54:12.190Z,11.63
2018-06-29T19:56:43.085Z,14.47
2018-06-29T19:59:11.574Z,11.80
2018-06-29T20:01:42.244Z,13.87
2018-06-29T20:04:12.529Z,14.77
2018-06-29T20:06:43.109Z,12.27
2018-06-29T20:09:12.997Z,14.73
2018-06-29T20:11:41.501Z,13.93
2018-06-29T20:14:16.503Z,14.17
2018-06-29T20:17:02.989Z,13.03
2018-06-29T20:19:33.933Z,13.27
2018-06-29T20:22:03.543Z,17.97
2018-06-29T20:24:31.865Z,14.87
2018-06-29T20:27:01.015Z,12.57
2018-06-29T20:29:29.199Z,11.87
2018-06-29T20:31:58.536Z,15.20
2018-06-29T20:34:26.974Z,10.37
2018-06-29T20:36:55.502Z,11.43
2018-06-29T20:39:24.501Z,10.97
2018-06-29T20:41:54.038Z,13.30
2018-06-29T20:44:26.305Z,15.27
2018-06-29T20:46:54.744Z,17.40
2018-06-29T20:49:23.817Z,15.00
2018-06-29T20:51:52.211Z,19.20
2018-06-29T20:54:20.577Z,13.03
2018-06-29T20:56:48.910Z,13.33
2018-06-29T20:59:17.565Z,16.67
2018-06-29T21:01:57.698Z,15.40
2018-06-29T21:04:26.033Z,16.10
2018-06-29T21:06:55.423Z,18.10
2018-06-29T21:09:24.210Z,14.63
2018-06-29T21:11:52.549Z,16.37
2018-06-29T21:14:20.865Z,13.67
2018-06-29T21:16:48.928Z,15.73
2018-06-29T21:19:17.397Z,17.10
2018-06-29T21:21:45.793Z,17.90
2018-06-29T21:24:14.104Z,17.83
2018-06-29T21:26:42.437Z,19.87
2018-06-29T21:29:10.848Z,16.40
2018-06-29T21:31:39.156Z,15.37
2018-06-29T21:34:07.621Z,15.37
2018-06-29T21:36:36.678Z,13.67
2018-06-29T21:39:07.461Z,20.07
2018-06-29T21:41:35.772Z,14.63
2018-06-29T21:44:04.381Z,17.97
2018-06-29T21:46:32.726Z,19.60
2018-06-29T21:49:01.037Z,14.73
2018-06-29T21:51:30.538Z,18.27
2018-06-29T21:53:58.592Z,18.83
2018-06-29T21:56:26.638Z,19.00
2018-06-29T21:58:55.002Z,20.87
2018-06-29T22:01:23.337Z,17.80
2018-06-29T22:03:53.290Z,17.23
2018-06-29T22:06:21.593Z,16.80
2018-06-29T22:08:49.919Z,18.53
2018-06-29T22:11:18.213Z,15.50
2018-06-29T22:13:47.557Z,18.30
2018-06-29T22:16:15.864Z,18.03
2018-06-29T22:18:44.213Z,16.13
2018-06-29T22:21:12.525Z,18.00
2018-06-29T22:23:40.904Z,16.00
2018-06-29T22:26:10.241Z,19.53
2018-06-29T22:28:38.637Z,21.13
2018-06-29T22:31:06.961Z,17.10
2018-06-29T22:33:36.237Z,18.80
2018-06-29T22:36:05.137Z,19.07
2018-06-29T22:38:33.450Z,14.37
2018-06-29T22:41:01.524Z,20.20
2018-06-29T22:43:30.777Z,15.87
2018-06-29T22:45:58.884Z,18.83
2018-06-29T22:48:27.205Z,16.77
2018-06-29T22:50:56.237Z,14.57
2018-06-29T22:53:24.550Z,18.10
2018-06-29T22:55:52.885Z,19.70
2018-06-29T22:58:21.241Z,18.57
2018-06-29T23:00:49.337Z,23.07
2018-06-29T23:03:17.670Z,19.40
2018-06-29T23:05:45.970Z,14.47
2018-06-29T23:08:14.673Z,20.63
2018-06-29T23:10:42.961Z,19.90
2018-06-29T23:13:11.362Z,20.43
2018-06-29T23:15:40.393Z,19.37
2018-06-29T23:18:08.730Z,19.53
2018-06-29T23:20:37.031Z,17.20
2018-06-29T23:23:05.417Z,16.57
2018-06-29T23:25:34.893Z,15.50
2018-06-29T23:28:03.217Z,17.43
2018-06-29T23:30:31.546Z,19.23
2018-06-29T23:33:00.825Z,18.30
2018-06-29T23:35:28.866Z,18.77
2018-06-29T23:37:57.179Z,19.10
2018-06-29T23:40:25.512Z,19.43
2018-06-29T23:42:53.809Z,15.13
2018-06-29T23:45:22.138Z,19.40
2018-06-29T23:47:50.433Z,18.70
2018-06-29T23:50:18.777Z,19.13
2018-06-29T23:52:47.121Z,23.42
2018-06-29T23:55:15.562Z,20.57
2018-06-29T23:57:43.877Z,17.93
